createdAt,value
2022-12-19T00:00:45.744Z,21.71
2022-12-19T00:03:13.494Z,21.71
2022-12-19T00:05:41.299Z,21.70
2022-12-19T00:08:17.200Z,21.70
2022-12-19T00:10:45.593Z,21.69
2022-12-19T00:13:15.482Z,21.69
2022-12-19T00:15:43.249Z,21.69
2022-12-19T00:18:11.155Z,21.69
2022-12-19T00:20:38.879Z,21.69
2022-12-19T00:23:06.603Z,21.69
2022-12-19T00:25:53.894Z,21.68
2022-12-19T00:28:21.572Z,21.69
2022-12-19T00:30:49.237Z,21.69
2022-12-19T00:33:19.201Z,21.69
2022-12-19T00:35:46.890Z,21.69
2022-12-19T00:38:14.729Z,21.70
2022-12-19T00:41:37.211Z,21.70
2022-12-19T00:44:07.090Z,21.68
2022-12-19T00:46:35.108Z,21.68
2022-12-19T00:49:02.823Z,21.67
2022-12-19T00:51:31.414Z,21.67
2022-12-19T01:08:45.026Z,21.67
2022-12-19T01:11:14.070Z,21.66
2022-12-19T01:13:40.729Z,21.65
2022-12-19T01:16:10.051Z,21.66
2022-12-19T01:18:37.822Z,21.64
2022-12-19T01:21:06.445Z,21.64
2022-12-19T01:23:34.050Z,21.64
2022-12-19T01:26:39.434Z,21.64
2022-12-19T01:29:08.447Z,21.64
2022-12-19T01:31:36.214Z,21.65
2022-12-19T01:34:03.987Z,21.65
2022-12-19T01:36:31.675Z,21.65
2022-12-19T01:38:59.417Z,21.66
2022-12-19T01:45:15.782Z,21.66
2022-12-19T01:47:45.733Z,21.67
2022-12-19T01:50:16.768Z,21.67
2022-12-19T01:52:44.381Z,21.66
2022-12-19T02:02:15.630Z,21.64
2022-12-19T02:04:44.715Z,21.63
2022-12-19T02:07:16.348Z,21.63
2022-12-19T02:13:34.389Z,21.63
2022-12-19T02:16:03.010Z,21.62
2022-12-19T02:18:33.087Z,21.62
2022-12-19T02:21:19.560Z,21.63
2022-12-19T02:24:11.404Z,21.62
2022-12-19T02:26:45.244Z,21.61
2022-12-19T02:29:20.262Z,21.61
2022-12-19T02:31:49.412Z,21.60
2022-12-19T02:34:18.879Z,21.61
2022-12-19T02:36:48.372Z,21.60
2022-12-19T02:39:18.668Z,21.59
2022-12-19T02:45:22.767Z,21.60
2022-12-19T02:47:57.698Z,21.61
2022-12-19T02:50:27.026Z,21.61
2022-12-19T02:52:54.841Z,21.63
2022-12-19T02:55:23.031Z,21.62
2022-12-19T02:58:09.444Z,21.62
2022-12-19T03:00:37.746Z,21.62
2022-12-19T03:03:08.385Z,21.62
2022-12-19T03:05:36.836Z,21.62
2022-12-19T03:08:06.318Z,21.61
2022-12-19T03:10:35.666Z,21.60
2022-12-19T03:13:03.654Z,21.60
2022-12-19T03:15:31.257Z,21.60
2022-12-19T03:17:59.307Z,21.59
2022-12-19T03:20:30.305Z,21.59
2022-12-19T03:22:57.936Z,21.58
2022-12-19T03:25:25.659Z,21.58
2022-12-19T03:27:53.282Z,21.57
2022-12-19T03:30:21.055Z,21.58
2022-12-19T03:32:48.720Z,21.58
2022-12-19T03:35:17.641Z,21.57
2022-12-19T03:37:46.686Z,21.57
2022-12-19T03:40:29.588Z,21.57
2022-12-19T03:43:09.835Z,21.56
2022-12-19T03:45:42.190Z,21.56
2022-12-19T03:48:10.373Z,21.55
2022-12-19T03:50:39.800Z,21.56
2022-12-19T03:53:09.817Z,21.56
2022-12-19T03:59:09.940Z,21.55
2022-12-19T04:01:37.656Z,21.54
2022-12-19T04:04:05.755Z,21.54
2022-12-19T04:06:33.840Z,21.54
2022-12-19T04:09:02.870Z,21.53
2022-12-19T04:15:02.418Z,21.54
2022-12-19T04:17:31.742Z,21.53
2022-12-19T04:20:00.959Z,21.53
2022-12-19T04:22:30.205Z,21.53
2022-12-19T04:25:18.035Z,21.54
2022-12-19T04:27:46.469Z,21.53
2022-12-19T04:30:14.355Z,21.53
2022-12-19T04:32:46.235Z,21.54
2022-12-19T04:35:14.323Z,21.53
2022-12-19T04:37:42.014Z,21.52
2022-12-19T04:40:10.140Z,21.51
2022-12-19T04:42:39.126Z,21.51
2022-12-19T04:45:07.499Z,21.52
2022-12-19T04:47:35.187Z,21.52
2022-12-19T04:50:02.901Z,21.52
2022-12-19T04:52:30.550Z,21.53
2022-12-19T04:54:58.218Z,21.54
2022-12-19T04:57:25.834Z,21.55
2022-12-19T04:59:54.856Z,21.55
2022-12-19T05:02:22.719Z,21.55
2022-12-19T05:04:50.613Z,21.54
2022-12-19T05:07:18.254Z,21.54
2022-12-19T05:09:45.962Z,21.54
2022-12-19T05:12:13.610Z,21.54
2022-12-19T05:14:41.208Z,21.54
2022-12-19T05:17:10.197Z,21.54
2022-12-19T05:19:37.817Z,21.54
2022-12-19T05:22:05.537Z,21.53
2022-12-19T05:24:33.155Z,21.54
2022-12-19T05:31:10.197Z,21.51
2022-12-19T05:33:39.308Z,21.50
2022-12-19T05:36:08.408Z,21.50
2022-12-19T05:38:36.190Z,21.49
2022-12-19T05:41:49.138Z,21.49
2022-12-19T05:44:17.078Z,21.49
2022-12-19T05:46:45.212Z,21.48
2022-12-19T05:49:14.586Z,21.48
2022-12-19T05:51:42.293Z,21.48
2022-12-19T05:54:09.953Z,21.48
2022-12-19T05:56:56.350Z,21.49
2022-12-19T05:59:24.110Z,21.49
2022-12-19T06:01:51.868Z,21.49
2022-12-19T06:04:20.934Z,21.49
2022-12-19T06:06:48.557Z,21.50
2022-12-19T06:09:16.195Z,21.51
2022-12-19T06:11:45.250Z,21.52
2022-12-19T06:14:12.879Z,21.51
2022-12-19T06:16:40.632Z,21.52
2022-12-19T06:19:08.454Z,21.54
2022-12-19T06:21:39.882Z,21.54
2022-12-19T06:24:13.253Z,21.55
2022-12-19T06:30:03.278Z,21.56
2022-12-19T06:32:36.202Z,21.58
2022-12-19T06:35:05.771Z,21.55
2022-12-19T06:37:36.867Z,21.56
2022-12-19T06:40:07.632Z,21.56
2022-12-19T06:42:34.334Z,21.56
2022-12-19T06:45:01.947Z,21.56
2022-12-19T06:47:29.550Z,21.59
2022-12-19T06:49:57.221Z,21.58
2022-12-19T06:52:26.065Z,21.59
2022-12-19T06:54:55.403Z,21.58
2022-12-19T07:00:45.228Z,21.60
2022-12-19T07:03:13.815Z,21.60
2022-12-19T07:05:41.478Z,21.60
2022-12-19T07:08:09.112Z,21.61
2022-12-19T07:10:38.240Z,21.61
2022-12-19T07:13:05.834Z,21.61
2022-12-19T07:15:33.480Z,21.62
2022-12-19T07:18:01.187Z,21.64
2022-12-19T07:20:29.295Z,21.64
2022-12-19T07:22:56.965Z,21.64
2022-12-19T07:25:24.628Z,21.65
2022-12-19T07:31:43.002Z,21.70
2022-12-19T07:34:12.128Z,21.72
2022-12-19T07:36:39.777Z,21.72
2022-12-19T07:39:07.504Z,21.73
2022-12-19T07:41:50.678Z,21.73
2022-12-19T07:44:18.637Z,21.74
2022-12-19T07:46:46.439Z,21.76
2022-12-19T07:49:20.993Z,21.78
2022-12-19T07:51:50.200Z,21.79
2022-12-19T07:54:17.944Z,21.81
2022-12-19T08:00:18.114Z,21.82
2022-12-19T08:02:45.897Z,21.83
2022-12-19T08:05:15.227Z,21.84
2022-12-19T08:07:42.851Z,21.85
2022-12-19T08:10:12.465Z,21.86
2022-12-19T08:12:40.107Z,21.88
2022-12-19T08:15:08.674Z,21.89
2022-12-19T08:17:38.724Z,21.89
2022-12-19T08:20:07.469Z,21.91
2022-12-19T08:22:36.592Z,21.92
2022-12-19T08:25:04.289Z,21.94
2022-12-19T08:28:09.272Z,21.97
2022-12-19T08:30:39.870Z,21.97
2022-12-19T08:33:07.683Z,21.99
2022-12-19T08:35:35.917Z,22.01
2022-12-19T08:38:04.933Z,22.01
2022-12-19T08:40:34.264Z,22.01
2022-12-19T08:47:08.750Z,22.01
2022-12-19T08:49:36.433Z,22.03
2022-12-19T08:52:04.719Z,22.04
2022-12-19T08:54:34.075Z,22.03
2022-12-19T09:00:34.678Z,22.04
2022-12-19T09:03:02.775Z,22.04
2022-12-19T09:06:04.534Z,22.04
2022-12-19T09:08:19.547Z,22.05
2022-12-19T09:10:48.554Z,22.06
2022-12-19T09:13:16.284Z,22.06
2022-12-19T09:15:43.966Z,22.06
2022-12-19T09:18:12.091Z,22.08
2022-12-19T09:20:39.779Z,22.08
2022-12-19T09:23:07.512Z,22.08
2022-12-19T09:25:35.139Z,22.08
2022-12-19T09:30:55.992Z,22.12
2022-12-19T09:33:24.302Z,22.14
2022-12-19T09:35:52.626Z,22.16
2022-12-19T09:38:22.386Z,22.15
2022-12-19T09:40:53.491Z,22.13
2022-12-19T09:46:55.490Z,22.08
2022-12-19T09:49:24.412Z,22.06
2022-12-19T09:51:53.908Z,22.05
2022-12-19T09:54:24.093Z,22.04
2022-12-19T09:57:12.082Z,22.02
2022-12-19T09:59:45.979Z,22.01
2022-12-19T10:02:24.299Z,21.99
2022-12-19T10:04:58.803Z,21.98
2022-12-19T10:08:07.078Z,21.97
2022-12-19T10:12:34.418Z,21.96
2022-12-19T10:13:58.185Z,21.95
2022-12-19T10:16:27.173Z,21.94
2022-12-19T10:18:57.333Z,21.95
2022-12-19T10:22:07.422Z,21.94
2022-12-19T10:24:28.801Z,21.92
2022-12-19T10:30:49.922Z,21.91
2022-12-19T10:33:20.754Z,21.91
2022-12-19T10:35:53.534Z,21.91
2022-12-19T10:38:23.417Z,21.92
2022-12-19T10:40:52.568Z,21.91
2022-12-19T10:43:59.758Z,21.94
2022-12-19T10:46:32.241Z,21.93
2022-12-19T10:48:59.896Z,21.94
2022-12-19T10:51:31.476Z,21.93
2022-12-19T10:54:00.267Z,21.92
2022-12-19T10:56:36.776Z,21.91
2022-12-19T10:59:05.710Z,21.90
2022-12-19T11:01:37.004Z,21.90
2022-12-19T11:04:26.834Z,21.90
2022-12-19T11:07:06.402Z,21.89
2022-12-19T11:09:37.249Z,21.90
2022-12-19T11:20:45.208Z,21.91
2022-12-19T11:28:19.844Z,21.92
2022-12-19T11:29:30.902Z,21.92
2022-12-19T11:29:34.917Z,21.94
2022-12-19T11:33:13.596Z,21.93
2022-12-19T11:35:49.735Z,21.93
2022-12-19T11:38:18.173Z,21.94
2022-12-19T11:40:49.648Z,21.95
2022-12-19T11:46:40.626Z,22.04
2022-12-19T11:49:10.692Z,22.05
2022-12-19T11:51:41.369Z,22.06
2022-12-19T11:54:11.166Z,22.10
2022-12-19T11:56:41.088Z,22.08
2022-12-19T11:59:30.664Z,22.10
2022-12-19T12:02:12.267Z,22.08
2022-12-19T12:04:52.981Z,22.05
2022-12-19T12:07:28.143Z,22.04
2022-12-19T12:12:48.330Z,22.02
2022-12-19T12:22:07.181Z,22.01
2022-12-19T12:27:29.833Z,22.01
2022-12-19T12:31:05.879Z,21.98
2022-12-19T12:31:15.728Z,22.00
2022-12-19T12:31:50.784Z,21.97
2022-12-19T12:31:57.749Z,21.98
2022-12-19T12:35:38.338Z,21.97
2022-12-19T12:38:13.785Z,21.98
2022-12-19T12:39:33.358Z,21.98
2022-12-19T12:42:06.903Z,21.96
2022-12-19T12:48:09.531Z,21.95
2022-12-19T12:50:37.886Z,21.97
2022-12-19T12:53:07.502Z,21.96
2022-12-19T12:55:38.063Z,21.97
2022-12-19T12:58:09.177Z,21.97
2022-12-19T13:00:41.902Z,21.97
2022-12-19T13:03:12.905Z,21.96
2022-12-19T13:05:53.996Z,21.95
2022-12-19T13:08:25.408Z,21.95
2022-12-19T13:10:57.414Z,21.93
2022-12-19T13:13:38.874Z,21.92
2022-12-19T13:16:19.619Z,21.90
2022-12-19T13:18:50.234Z,21.89
2022-12-19T13:21:18.511Z,21.88
2022-12-19T13:23:46.946Z,21.88
2022-12-19T13:26:22.338Z,21.87
2022-12-19T13:32:14.767Z,21.85
2022-12-19T13:35:01.718Z,21.84
2022-12-19T13:39:55.162Z,21.84
2022-12-19T13:40:33.077Z,21.83
2022-12-19T13:43:27.905Z,21.82
2022-12-19T13:45:55.744Z,21.82
2022-12-19T13:48:28.752Z,21.80
2022-12-19T13:50:57.823Z,21.80
2022-12-19T13:53:26.995Z,21.80
2022-12-19T13:55:55.108Z,21.80
2022-12-19T14:05:34.035Z,21.81
2022-12-19T14:08:18.482Z,21.81
2022-12-19T14:11:40.708Z,21.84
2022-12-19T14:14:00.470Z,21.83
2022-12-19T14:16:39.849Z,21.84
2022-12-19T14:19:20.373Z,21.84
2022-12-19T14:22:04.100Z,21.83
2022-12-19T14:24:37.551Z,21.83
2022-12-19T14:28:19.580Z,21.82
2022-12-19T14:33:44.186Z,21.80
2022-12-19T14:36:21.511Z,21.78
2022-12-19T14:39:25.272Z,21.78
2022-12-19T14:42:02.115Z,21.76
2022-12-19T14:52:51.018Z,21.74
2022-12-19T14:54:14.082Z,21.72
2022-12-19T14:54:25.925Z,21.72
2022-12-19T14:54:33.737Z,21.71
2022-12-19T14:59:00.804Z,21.70
2022-12-19T15:01:28.982Z,21.68
2022-12-19T15:04:49.632Z,21.68
2022-12-19T15:07:08.331Z,21.66
2022-12-19T15:10:59.361Z,21.67
2022-12-19T15:14:50.872Z,21.68
2022-12-19T15:15:39.566Z,21.68
2022-12-19T15:18:21.656Z,21.68
2022-12-19T15:20:49.352Z,21.68
2022-12-19T15:23:21.908Z,21.67
2022-12-19T15:26:07.641Z,21.67
2022-12-19T15:28:38.693Z,21.66
2022-12-19T15:31:08.251Z,21.66
2022-12-19T15:33:48.092Z,21.64
2022-12-19T15:36:25.784Z,21.63
2022-12-19T15:38:54.141Z,21.62
2022-12-19T15:41:22.055Z,21.63
2022-12-19T15:44:05.795Z,21.62
2022-12-19T15:46:42.974Z,21.61
2022-12-19T15:49:15.230Z,21.60
2022-12-19T15:51:42.992Z,21.60
2022-12-19T15:54:46.486Z,21.59
2022-12-19T15:56:59.344Z,21.60
2022-12-19T16:03:27.441Z,21.58
2022-12-19T16:05:55.922Z,21.57
2022-12-19T16:08:26.104Z,21.57
2022-12-19T16:11:01.530Z,21.56
2022-12-19T16:13:44.854Z,21.56
2022-12-19T16:16:16.059Z,21.56
2022-12-19T16:18:45.500Z,21.55
2022-12-19T16:21:18.313Z,21.55
2022-12-19T16:23:46.013Z,21.57
2022-12-19T16:26:17.335Z,21.57
2022-12-19T16:32:17.707Z,21.58
2022-12-19T16:34:47.425Z,21.57
2022-12-19T16:37:16.096Z,21.57
2022-12-19T16:39:43.763Z,21.56
2022-12-19T16:42:15.162Z,21.56
2022-12-19T16:44:42.887Z,21.55
2022-12-19T16:47:12.764Z,21.54
2022-12-19T16:49:40.435Z,21.54
2022-12-19T16:52:10.256Z,21.52
2022-12-19T16:54:37.916Z,21.53
2022-12-19T16:57:07.215Z,21.52
2022-12-19T16:59:36.554Z,21.51
2022-12-19T17:02:06.573Z,21.51
2022-12-19T17:04:35.005Z,21.51
2022-12-19T17:07:06.589Z,21.50
2022-12-19T17:09:36.324Z,21.50
2022-12-19T17:12:04.046Z,21.49
2022-12-19T17:14:50.776Z,21.49
2022-12-19T17:17:18.408Z,21.49
2022-12-19T17:19:46.765Z,21.48
2022-12-19T17:22:14.512Z,21.48
2022-12-19T17:24:44.720Z,21.48
2022-12-19T17:27:12.365Z,21.48
2022-12-19T17:30:11.718Z,21.50
2022-12-19T17:32:39.378Z,21.49
2022-12-19T17:35:08.755Z,21.50
2022-12-19T17:37:36.390Z,21.51
2022-12-19T17:40:07.534Z,21.50
2022-12-19T17:42:37.594Z,21.51
2022-12-19T17:52:10.452Z,21.47
2022-12-19T17:54:38.777Z,21.47
2022-12-19T17:57:09.305Z,21.46
2022-12-19T18:03:12.587Z,21.46
2022-12-19T18:05:41.096Z,21.45
2022-12-19T18:08:15.999Z,21.44
2022-12-19T18:10:47.778Z,21.44
2022-12-19T18:13:16.838Z,21.44
2022-12-19T18:16:11.819Z,21.43
2022-12-19T18:18:39.680Z,21.43
2022-12-19T18:21:09.871Z,21.42
2022-12-19T18:23:37.544Z,21.41
2022-12-19T18:26:06.801Z,21.41
2022-12-19T18:28:35.775Z,21.41
2022-12-19T18:31:04.672Z,21.41
2022-12-19T18:33:37.398Z,21.41
2022-12-19T18:36:06.043Z,21.41
2022-12-19T18:38:33.828Z,21.43
2022-12-19T18:41:02.270Z,21.42
2022-12-19T18:43:32.739Z,21.43
2022-12-19T18:49:37.295Z,21.43
2022-12-19T18:52:05.723Z,21.43
2022-12-19T18:54:33.383Z,21.41
2022-12-19T18:57:01.726Z,21.41
2022-12-19T19:02:53.109Z,21.40
2022-12-19T19:05:23.127Z,21.41
2022-12-19T19:07:51.578Z,21.42
2022-12-19T19:10:19.881Z,21.41
2022-12-19T19:12:49.898Z,21.43
2022-12-19T19:15:18.238Z,21.43
2022-12-19T19:17:46.829Z,21.44
2022-12-19T19:20:15.828Z,21.44
2022-12-19T19:22:44.902Z,21.44
2022-12-19T19:25:13.244Z,21.44
2022-12-19T19:27:41.104Z,21.44
2022-12-19T19:30:10.961Z,21.45
2022-12-19T19:32:38.714Z,21.45
2022-12-19T19:35:08.946Z,21.44
2022-12-19T19:37:36.599Z,21.45
2022-12-19T19:40:06.212Z,21.46
2022-12-19T19:42:34.553Z,21.47
2022-12-19T19:48:35.938Z,21.48
2022-12-19T19:51:04.327Z,21.48
2022-12-19T19:53:32.044Z,21.48
2022-12-19T19:56:01.339Z,21.50
2022-12-19T19:58:30.930Z,21.48
2022-12-19T20:01:50.498Z,21.49
2022-12-19T20:04:19.048Z,21.49
2022-12-19T20:06:46.709Z,21.49
2022-12-19T20:09:15.186Z,21.49
2022-12-19T20:11:44.384Z,21.48
2022-12-19T20:21:17.139Z,21.48
2022-12-19T20:23:45.518Z,21.47
2022-12-19T20:26:13.358Z,21.47
2022-12-19T20:28:48.306Z,21.47
2022-12-19T20:35:32.206Z,21.47
2022-12-19T20:38:01.760Z,21.46
2022-12-19T20:40:30.055Z,21.45
2022-12-19T20:42:57.740Z,21.46
2022-12-19T20:45:27.538Z,21.46
2022-12-19T20:47:55.354Z,21.46
2022-12-19T20:50:23.801Z,21.45
2022-12-19T20:52:51.446Z,21.46
2022-12-19T20:55:19.930Z,21.45
2022-12-19T20:57:47.600Z,21.46
2022-12-19T21:00:16.883Z,21.46
2022-12-19T21:03:25.861Z,21.48
2022-12-19T21:05:34.316Z,21.46
2022-12-19T21:08:02.031Z,21.46
2022-12-19T21:10:30.424Z,21.46
2022-12-19T21:12:58.118Z,21.45
2022-12-19T21:15:46.389Z,21.46
2022-12-19T21:18:15.441Z,21.46
2022-12-19T21:20:54.254Z,21.45
2022-12-19T21:23:23.191Z,21.45
2022-12-19T21:25:51.622Z,21.45
2022-12-19T21:28:19.455Z,21.44
2022-12-19T21:34:22.004Z,21.43
2022-12-19T21:36:50.330Z,21.44
2022-12-19T21:39:20.688Z,21.44
2022-12-19T21:41:49.057Z,21.44
2022-12-19T21:44:16.679Z,21.43
2022-12-19T21:46:46.024Z,21.43
2022-12-19T21:49:13.665Z,21.43
2022-12-19T21:51:43.300Z,21.41
2022-12-19T21:54:10.946Z,21.41
2022-12-19T21:56:39.668Z,21.42
2022-12-19T21:59:07.632Z,21.43
2022-12-19T22:01:36.190Z,21.43
2022-12-19T22:04:04.663Z,21.44
2022-12-19T22:06:33.172Z,21.43
2022-12-19T22:09:02.275Z,21.43
2022-12-19T22:11:30.836Z,21.43
2022-12-19T22:13:59.512Z,21.42
2022-12-19T22:20:01.021Z,21.39
2022-12-19T22:22:29.829Z,21.36
2022-12-19T22:24:58.882Z,21.36
2022-12-19T22:27:27.242Z,21.34
2022-12-19T22:30:25.838Z,21.35
2022-12-19T22:32:54.145Z,21.33
2022-12-19T22:35:21.789Z,21.33
2022-12-19T22:37:50.865Z,21.32
2022-12-19T22:40:20.055Z,21.30
2022-12-19T22:42:48.314Z,21.31
2022-12-19T22:45:15.983Z,21.29
2022-12-19T22:47:44.676Z,21.29
2022-12-19T22:50:12.379Z,21.29
2022-12-19T22:52:40.554Z,21.28
2022-12-19T22:55:08.511Z,21.28
2022-12-19T22:57:38.919Z,21.26
2022-12-19T23:00:55.169Z,21.26
2022-12-19T23:03:23.535Z,21.25
2022-12-19T23:05:52.160Z,21.24
2022-12-19T23:08:20.223Z,21.25
2022-12-19T23:10:50.783Z,21.25
2022-12-19T23:13:19.968Z,21.24
2022-12-19T23:15:47.564Z,21.23
2022-12-19T23:18:15.875Z,21.23
2022-12-19T23:20:43.585Z,21.22
2022-12-19T23:23:11.430Z,21.23
2022-12-19T23:25:40.556Z,21.22
2022-12-19T23:28:08.313Z,21.21
2022-12-19T23:30:37.301Z,21.21
2022-12-19T23:33:04.949Z,21.21
2022-12-19T23:35:33.124Z,21.21
2022-12-19T23:38:01.128Z,21.20
2022-12-19T23:40:28.745Z,21.20
2022-12-19T23:42:56.394Z,21.19
2022-12-19T23:45:24.310Z,21.20
2022-12-19T23:47:54.666Z,21.20
2022-12-19T23:50:22.318Z,21.19
2022-12-19T23:52:49.933Z,21.19
2022-12-19T23:55:17.667Z,21.19
2022-12-19T23:57:45.258Z,21.18
